Time;durP1;ratioP1;P1;durP2;ratioP2;P2;SDS_P1;SDS_P2;PMS_P1;PMS_P2;Temp;Humidity;BMP_temperature;BMP_pressure;BME280_temperature;BME280_humidity;BME280_pressure;Samples;Min_cycle;Max_cycle;Signal;HPM_P1;HPM_P2
2022/03/23 00:01:15;;;;;;;21.97;17.80;;;8.60;80.50;;;;;;5093271;28;20483;-57
2022/03/23 00:03:43;;;;;;;26.93;18.00;;;8.60;80.80;;;;;;5093322;28;20930;-57
2022/03/23 00:06:17;;;;;;;21.70;16.77;;;8.50;80.80;;;;;;5092955;28;21006;-57
2022/03/23 00:08:44;;;;;;;21.50;17.50;;;8.30;80.70;;;;;;5093067;28;20467;-58
2022/03/23 00:11:11;;;;;;;21.13;15.97;;;8.20;81.10;;;;;;5093248;28;20812;-58
2022/03/23 00:13:38;;;;;;;23.13;16.10;;;8.30;81.20;;;;;;5092890;28;20463;-58
2022/03/23 00:16:06;;;;;;;22.60;17.60;;;8.30;82.10;;;;;;5093346;28;20443;-58
2022/03/23 00:18:34;;;;;;;20.23;16.67;;;8.30;81.00;;;;;;5092850;28;20467;-57
2022/03/23 00:21:01;;;;;;;24.93;16.77;;;8.30;81.50;;;;;;5092751;28;20481;-58
2022/03/23 00:23:30;;;;;;;22.90;16.70;;;8.20;81.50;;;;;;5092950;28;20857;-57
2022/03/23 00:25:59;;;;;;;20.10;16.40;;;8.30;81.80;;;;;;5093128;28;20486;-58
2022/03/23 00:28:26;;;;;;;22.13;16.80;;;8.20;82.20;;;;;;5095160;28;20501;-57
2022/03/23 00:30:54;;;;;;;27.00;17.73;;;8.20;81.70;;;;;;5096831;28;20930;-57
2022/03/23 00:33:22;;;;;;;24.13;16.17;;;8.20;82.10;;;;;;5096630;28;20486;-57
2022/03/23 00:35:49;;;;;;;25.23;16.13;;;8.10;82.50;;;;;;5096524;28;20934;-57
2022/03/23 00:38:18;;;;;;;22.07;17.63;;;8.10;81.80;;;;;;5096954;28;20837;-57
2022/03/23 00:40:46;;;;;;;21.17;16.73;;;8.10;81.90;;;;;;5096782;28;20451;-57
2022/03/23 00:43:13;;;;;;;22.47;15.60;;;8.10;82.40;;;;;;5096639;28;20929;-57
2022/03/23 00:45:41;;;;;;;19.80;16.07;;;8.00;81.80;;;;;;5096793;28;20450;-57
2022/03/23 00:48:08;;;;;;;19.90;15.67;;;7.90;82.20;;;;;;5096617;28;20473;-57
2022/03/23 00:50:35;;;;;;;20.57;14.03;;;7.90;82.80;;;;;;5096550;28;20443;-57
2022/03/23 00:53:03;;;;;;;21.17;16.70;;;7.90;81.80;;;;;;5096084;28;20482;-57
2022/03/23 00:55:30;;;;;;;19.57;16.50;;;8.00;82.80;;;;;;5096677;28;20447;-57
2022/03/23 00:57:59;;;;;;;18.23;13.67;;;7.90;82.80;;;;;;5096122;28;20467;-57
2022/03/23 01:00:26;;;;;;;20.50;15.63;;;8.00;81.90;;;;;;5096506;28;20542;-57
2022/03/23 01:02:53;;;;;;;18.63;14.97;;;7.90;81.40;;;;;;5096463;28;20489;-57
2022/03/23 01:05:20;;;;;;;18.97;15.60;;;7.80;82.20;;;;;;5096267;28;20862;-57
2022/03/23 01:07:49;;;;;;;18.07;14.63;;;7.80;81.90;;;;;;5095910;28;20550;-58
2022/03/23 01:10:21;;;;;;;17.10;14.23;;;7.80;81.60;;;;;;5096081;28;20448;-58
2022/03/23 01:12:48;;;;;;;17.70;13.37;;;7.80;81.00;;;;;;5096208;28;20509;-57
2022/03/23 01:15:20;;;;;;;18.77;14.20;;;7.70;80.90;;;;;;5096142;28;20447;-57
2022/03/23 01:17:47;;;;;;;21.73;13.10;;;7.60;81.30;;;;;;5096206;28;20819;-57
2022/03/23 01:20:15;;;;;;;18.80;14.10;;;7.60;81.30;;;;;;5096217;28;20447;-57
2022/03/23 01:22:44;;;;;;;17.43;13.40;;;7.50;81.50;;;;;;5095933;28;20826;-57
2022/03/23 01:25:13;;;;;;;15.97;13.27;;;7.60;81.10;;;;;;5095660;28;20929;-57
2022/03/23 01:27:41;;;;;;;22.30;12.40;;;7.50;81.00;;;;;;5096035;28;20525;-57
2022/03/23 01:30:11;;;;;;;16.90;12.90;;;7.50;81.50;;;;;;5095882;28;20447;-57
2022/03/23 01:32:40;;;;;;;16.50;12.67;;;7.40;80.80;;;;;;5095522;28;20536;-57
2022/03/23 01:35:09;;;;;;;17.43;12.90;;;7.40;81.30;;;;;;5095735;28;20454;-57
2022/03/23 01:37:36;;;;;;;21.20;15.07;;;7.50;81.20;;;;;;5095357;28;20467;-57
2022/03/23 01:40:04;;;;;;;18.10;12.67;;;7.40;81.30;;;;;;5095524;28;20465;-57
2022/03/23 01:42:31;;;;;;;16.30;12.90;;;7.40;81.80;;;;;;5095225;28;20486;-58
2022/03/23 01:44:59;;;;;;;21.40;14.00;;;7.50;81.80;;;;;;5095466;28;20527;-57
2022/03/23 01:47:26;;;;;;;19.63;13.77;;;7.40;81.80;;;;;;5095171;28;20472;-58
2022/03/23 01:49:56;;;;;;;16.90;12.93;;;7.30;81.70;;;;;;5095207;28;20444;-57
2022/03/23 01:52:26;;;;;;;18.40;15.10;;;7.30;82.30;;;;;;5094343;28;20472;-57
2022/03/23 01:54:54;;;;;;;15.23;12.83;;;7.30;81.40;;;;;;5095055;28;20450;-58
2022/03/23 01:57:22;;;;;;;18.17;13.87;;;7.30;82.30;;;;;;5095158;28;20516;-57
2022/03/23 01:59:49;;;;;;;17.60;13.33;;;7.30;82.70;;;;;;5095188;28;20458;-57
2022/03/23 02:02:16;;;;;;;22.63;15.00;;;7.30;82.80;;;;;;5095199;28;20486;-57
2022/03/23 02:04:44;;;;;;;14.37;12.87;;;7.30;82.00;;;;;;5094747;28;20493;-57
2022/03/23 02:07:13;;;;;;;15.77;13.70;;;7.40;82.10;;;;;;5094874;28;20467;-57
2022/03/23 02:09:40;;;;;;;19.43;14.00;;;7.30;82.30;;;;;;5094800;28;20457;-57
2022/03/23 02:12:09;;;;;;;16.97;12.60;;;7.20;83.00;;;;;;5094992;28;20439;-58
2022/03/23 02:14:36;;;;;;;16.73;12.50;;;7.20;82.40;;;;;;5094897;28;20810;-57
2022/03/23 02:17:04;;;;;;;16.20;14.40;;;7.10;82.70;;;;;;5095020;28;20554;-58
2022/03/23 02:19:31;;;;;;;18.30;13.10;;;7.00;82.70;;;;;;5094565;28;20509;-57
2022/03/23 02:22:00;;;;;;;13.00;11.60;;;7.00;82.30;;;;;;5094812;28;20485;-57
2022/03/23 02:24:29;;;;;;;13.60;12.17;;;7.00;82.10;;;;;;5094995;28;20455;-57
2022/03/23 02:26:57;;;;;;;17.23;12.87;;;6.90;83.10;;;;;;5094399;28;20471;-57
2022/03/23 02:29:29;;;;;;;14.00;12.40;;;6.90;82.80;;;;;;5094440;28;20447;-57
2022/03/23 02:31:57;;;;;;;17.80;12.57;;;6.70;82.00;;;;;;5094533;28;20914;-57
2022/03/23 02:34:24;;;;;;;20.43;13.07;;;6.70;82.60;;;;;;5094610;28;20443;-57
2022/03/23 02:36:51;;;;;;;17.73;14.00;;;6.80;81.50;;;;;;5094378;28;20555;-57
2022/03/23 02:39:20;;;;;;;16.70;13.23;;;6.80;83.00;;;;;;5094345;28;20447;-57
2022/03/23 02:41:47;;;;;;;15.33;12.50;;;6.90;82.90;;;;;;5094508;28;20479;-58
2022/03/23 02:44:15;;;;;;;14.00;12.43;;;6.90;82.30;;;;;;5094109;28;20501;-57
2022/03/23 02:46:42;;;;;;;15.90;12.90;;;6.90;82.10;;;;;;5094079;28;21008;-57
2022/03/23 02:49:10;;;;;;;16.10;11.80;;;6.90;82.60;;;;;;5094478;28;20452;-57
2022/03/23 02:51:38;;;;;;;18.33;14.07;;;6.80;83.50;;;;;;5093480;28;20454;-58
2022/03/23 03:02:36;;;;;;;14.93;12.07;;;6.60;83.80;;;;;;5093845;28;20532;-57
2022/03/23 03:05:04;;;;;;;14.77;12.33;;;6.70;84.10;;;;;;5093968;28;20454;-57
2022/03/23 03:08:44;;;;;;;14.60;12.73;;;6.70;83.90;;;;;;5094096;28;20470;-57
2022/03/23 03:10:20;;;;;;;18.50;14.63;;;6.70;84.10;;;;;;5093716;28;21067;-57
2022/03/23 03:12:49;;;;;;;17.23;11.70;;;6.70;84.20;;;;;;5093765;28;20444;-57
2022/03/23 03:15:17;;;;;;;15.60;13.30;;;6.50;84.70;;;;;;5093618;28;20814;-57
2022/03/23 03:17:44;;;;;;;17.50;12.73;;;6.50;85.40;;;;;;5093886;28;20478;-57
2022/03/23 03:20:13;;;;;;;22.50;14.30;;;6.50;85.40;;;;;;5093500;28;20930;-57
2022/03/23 03:22:40;;;;;;;13.97;12.17;;;6.40;88.90;;;;;;5093720;28;20576;-58
2022/03/23 03:25:08;;;;;;;16.60;12.67;;;6.50;89.60;;;;;;5093572;28;20450;-57
2022/03/23 03:27:39;;;;;;;15.40;12.23;;;6.50;85.70;;;;;;5093739;28;20471;-57
2022/03/23 03:30:10;;;;;;;15.87;11.80;;;6.50;86.00;;;;;;5093782;28;20526;-57
2022/03/23 03:32:37;;;;;;;16.17;13.20;;;6.40;90.00;;;;;;5093663;28;20428;-57
2022/03/23 03:35:06;;;;;;;18.73;14.43;;;6.40;86.80;;;;;;5093399;28;20448;-57
2022/03/23 03:37:33;;;;;;;17.33;13.60;;;6.40;86.80;;;;;;5093242;28;20467;-57
2022/03/23 03:40:00;;;;;;;19.20;13.47;;;6.30;86.70;;;;;;5093324;28;20522;-57
2022/03/23 03:42:28;;;;;;;18.83;12.70;;;6.20;87.10;;;;;;5093181;28;20487;-57
2022/03/23 03:44:57;;;;;;;17.17;13.03;;;6.10;87.30;;;;;;5093298;28;20528;-57
2022/03/23 03:47:26;;;;;;;21.20;12.77;;;6.00;87.50;;;;;;5093090;28;20979;-57
2022/03/23 03:49:53;;;;;;;14.53;12.97;;;6.10;87.50;;;;;;5093559;28;20447;-57
2022/03/23 03:52:20;;;;;;;16.80;11.77;;;6.10;87.60;;;;;;5092870;28;20974;-57
2022/03/23 03:54:48;;;;;;;16.73;13.90;;;6.10;88.10;;;;;;5093090;28;20444;-57
2022/03/23 03:57:15;;;;;;;16.73;12.27;;;6.20;87.20;;;;;;5093487;28;20467;-57
2022/03/23 03:59:42;;;;;;;17.47;13.10;;;6.20;87.50;;;;;;5093458;28;20497;-57
2022/03/23 04:02:09;;;;;;;14.77;12.63;;;6.10;87.10;;;;;;5093403;28;20841;-56
2022/03/23 04:04:38;;;;;;;16.70;12.73;;;6.10;87.50;;;;;;5097688;28;20445;-57
2022/03/23 04:07:05;;;;;;;17.20;12.37;;;6.10;86.90;;;;;;5097482;28;20463;-57
2022/03/23 04:09:32;;;;;;;16.70;12.57;;;6.00;87.50;;;;;;5097121;28;20450;-58
2022/03/23 04:11:59;;;;;;;16.70;13.67;;;5.90;88.50;;;;;;5097062;28;20802;-57
2022/03/23 04:14:26;;;;;;;18.10;12.17;;;5.90;88.20;;;;;;5097698;28;20542;-57
2022/03/23 04:16:53;;;;;;;19.70;14.33;;;6.00;88.00;;;;;;5096904;28;20499;-57
2022/03/23 04:19:20;;;;;;;22.97;13.40;;;6.00;88.00;;;;;;5097005;28;21004;-56
2022/03/23 04:21:49;;;;;;;14.87;12.50;;;6.00;88.10;;;;;;5097176;28;20447;-57
2022/03/23 04:24:16;;;;;;;17.77;13.27;;;5.90;88.20;;;;;;5097119;28;20443;-57
2022/03/23 04:26:44;;;;;;;14.07;12.53;;;5.90;88.60;;;;;;5096755;28;20546;-57
2022/03/23 04:29:11;;;;;;;17.77;13.43;;;5.80;88.50;;;;;;5096901;28;20443;-57
2022/03/23 04:31:38;;;;;;;18.93;13.50;;;5.80;93.80;;;;;;5096952;28;20517;-57
2022/03/23 04:34:05;;;;;;;19.00;13.37;;;5.80;89.80;;;;;;5096983;28;20439;-57
2022/03/23 04:36:32;;;;;;;15.70;12.67;;;5.80;89.50;;;;;;5096903;28;20462;-57
2022/03/23 04:39:01;;;;;;;20.03;13.00;;;5.70;89.10;;;;;;5096905;28;20447;-57
2022/03/23 04:41:29;;;;;;;22.60;13.80;;;5.70;89.60;;;;;;5096588;28;20918;-57
2022/03/23 04:43:56;;;;;;;16.87;13.33;;;5.70;90.10;;;;;;5096599;28;20497;-57
2022/03/23 04:46:23;;;;;;;16.47;13.40;;;5.60;90.00;;;;;;5096748;28;20450;-57
2022/03/23 04:48:50;;;;;;;22.07;14.17;;;5.60;90.30;;;;;;5096334;28;20498;-57
2022/03/23 04:51:17;;;;;;;17.83;13.83;;;5.60;90.30;;;;;;5096793;28;20447;-57
2022/03/23 04:53:44;;;;;;;17.13;12.47;;;5.60;90.20;;;;;;5096105;28;20475;-57
2022/03/23 04:56:13;;;;;;;19.63;16.27;;;5.60;90.20;;;;;;5096514;28;20521;-57
2022/03/23 04:58:41;;;;;;;17.47;14.93;;;5.70;90.30;;;;;;5096234;28;20561;-57
2022/03/23 05:01:08;;;;;;;19.10;14.93;;;5.70;90.40;;;;;;5096176;28;20487;-57
2022/03/23 05:03:35;;;;;;;16.37;13.23;;;5.60;90.30;;;;;;5095987;28;20501;-57
2022/03/23 05:06:02;;;;;;;19.57;14.70;;;5.50;90.50;;;;;;5096164;28;20443;-57
2022/03/23 05:08:29;;;;;;;16.13;13.53;;;5.40;90.90;;;;;;5096012;28;20467;-57
2022/03/23 05:10:59;;;;;;;18.40;13.57;;;5.50;90.80;;;;;;5095876;28;21230;-57
2022/03/23 05:13:28;;;;;;;16.47;13.93;;;5.60;90.80;;;;;;5095150;28;20473;-57
2022/03/23 05:15:55;;;;;;;17.10;14.10;;;5.50;90.40;;;;;;5095897;28;20542;-57
2022/03/23 05:18:23;;;;;;;17.87;14.17;;;5.40;90.80;;;;;;5096113;28;20486;-57
2022/03/23 05:20:50;;;;;;;18.93;15.10;;;5.50;90.90;;;;;;5095776;28;20471;-57
2022/03/23 05:23:17;;;;;;;18.53;14.23;;;5.40;90.70;;;;;;5095850;28;20562;-57
2022/03/23 05:25:44;;;;;;;16.03;14.40;;;5.40;91.10;;;;;;5095600;28;20930;-57
2022/03/23 05:28:11;;;;;;;17.80;14.10;;;5.40;91.00;;;;;;5095450;28;20468;-57
2022/03/23 05:30:40;;;;;;;16.53;14.23;;;5.40;91.00;;;;;;5095629;28;20991;-57
2022/03/23 05:33:07;;;;;;;16.53;13.60;;;5.40;90.90;;;;;;5095444;28;20444;-57
2022/03/23 05:35:34;;;;;;;15.00;13.40;;;5.40;90.80;;;;;;5095284;28;20448;-57
2022/03/23 05:38:01;;;;;;;20.23;14.27;;;5.30;93.20;;;;;;5095733;28;20499;-56
2022/03/23 05:40:28;;;;;;;19.07;14.03;;;5.30;94.20;;;;;;5095585;28;20447;-57
2022/03/23 05:42:56;;;;;;;17.30;13.27;;;5.30;92.80;;;;;;5095371;28;20839;-57
2022/03/23 05:45:23;;;;;;;23.17;14.40;;;5.50;90.90;;;;;;5095159;28;20540;-57
2022/03/23 05:47:53;;;;;;;19.80;13.80;;;5.50;90.40;;;;;;5095200;28;20978;-57
2022/03/23 05:50:21;;;;;;;18.70;14.60;;;5.50;90.80;;;;;;5095395;28;20435;-57
2022/03/23 05:52:48;;;;;;;18.70;14.40;;;5.40;91.00;;;;;;5094934;28;20472;-57
2022/03/23 05:55:15;;;;;;;27.80;16.67;;;5.40;94.20;;;;;;5095508;28;20450;-57
2022/03/23 05:57:42;;;;;;;23.77;15.77;;;5.40;91.40;;;;;;5094973;28;20997;-57
2022/03/23 06:00:10;;;;;;;19.90;14.70;;;5.50;91.60;;;;;;5094801;28;20483;-57
2022/03/23 06:02:38;;;;;;;21.93;16.30;;;5.50;91.60;;;;;;5095117;28;20479;-57
2022/03/23 06:05:07;;;;;;;17.63;14.03;;;5.60;91.20;;;;;;5095119;28;20535;-57
2022/03/23 06:07:35;;;;;;;19.87;17.03;;;5.80;90.90;;;;;;5094632;28;21048;-57
2022/03/23 06:10:02;;;;;;;18.90;14.30;;;5.90;90.60;;;;;;5095108;28;20483;-57
2022/03/23 06:12:29;;;;;;;18.37;15.67;;;5.80;90.00;;;;;;5094708;28;20453;-57
2022/03/23 06:14:56;;;;;;;29.60;17.40;;;5.80;90.30;;;;;;5094952;28;20489;-57
2022/03/23 06:17:24;;;;;;;23.97;16.90;;;5.80;90.10;;;;;;5094636;28;20550;-57
2022/03/23 06:19:51;;;;;;;18.83;15.90;;;5.90;90.00;;;;;;5094743;28;20534;-57
2022/03/23 06:22:19;;;;;;;19.50;15.97;;;5.80;90.00;;;;;;5094155;28;20884;-57
2022/03/23 06:24:47;;;;;;;22.07;16.30;;;5.70;90.20;;;;;;5094050;28;20443;-57
2022/03/23 06:27:14;;;;;;;24.13;16.70;;;5.70;90.40;;;;;;5093974;28;20805;-57
2022/03/23 06:29:41;;;;;;;22.83;16.20;;;5.80;90.40;;;;;;5094589;28;20842;-57
2022/03/23 06:32:09;;;;;;;26.37;17.20;;;5.90;90.40;;;;;;5094176;28;20538;-57
2022/03/23 06:34:36;;;;;;;19.77;15.97;;;6.00;90.20;;;;;;5094311;28;20444;-57
2022/03/23 06:37:04;;;;;;;23.10;18.17;;;6.00;90.00;;;;;;5093960;28;20557;-57
2022/03/23 06:39:33;;;;;;;27.13;17.53;;;6.10;89.60;;;;;;5093996;28;21027;-57
2022/03/23 06:42:00;;;;;;;24.67;15.80;;;6.20;89.90;;;;;;5093951;28;20948;-57
2022/03/23 06:44:27;;;;;;;21.60;16.90;;;6.30;88.60;;;;;;5094135;28;20538;-57
2022/03/23 06:46:55;;;;;;;23.60;18.27;;;6.40;88.80;;;;;;5094124;28;20474;-57
2022/03/23 06:49:25;;;;;;;22.10;16.67;;;6.40;88.00;;;;;;5094180;28;20500;-58
2022/03/23 06:51:52;;;;;;;21.83;17.50;;;6.40;86.90;;;;;;5093653;28;20475;-57
2022/03/23 06:54:20;;;;;;;24.53;18.63;;;6.40;87.50;;;;;;5093727;28;20447;-57
2022/03/23 06:56:51;;;;;;;25.73;18.87;;;6.40;88.50;;;;;;5093486;28;20468;-57
2022/03/23 06:59:18;;;;;;;22.37;18.10;;;6.40;88.50;;;;;;5093761;28;20435;-57
2022/03/23 07:01:46;;;;;;;22.53;16.33;;;6.40;88.00;;;;;;5093668;28;20531;-57
2022/03/23 07:04:13;;;;;;;27.83;18.40;;;6.50;87.40;;;;;;5093597;28;20479;-57
2022/03/23 07:06:41;;;;;;;20.77;18.53;;;6.50;87.30;;;;;;5093785;28;20451;-57
2022/03/23 07:11:54;;;;;;;23.87;19.47;;;6.60;87.40;;;;;;5093378;28;20414;-57
2022/03/23 07:14:21;;;;;;;23.07;16.90;;;6.60;87.70;;;;;;5093856;28;20534;-57
2022/03/23 07:16:48;;;;;;;26.40;18.13;;;6.70;87.60;;;;;;5093409;28;20546;-57
2022/03/23 07:19:17;;;;;;;23.07;15.80;;;6.80;87.30;;;;;;5093385;28;20486;-57
2022/03/23 07:21:44;;;;;;;23.50;18.27;;;6.80;87.30;;;;;;5093214;28;20899;-57
2022/03/23 07:24:11;;;;;;;26.70;18.77;;;6.80;86.00;;;;;;5093107;28;20968;-57
2022/03/23 07:26:39;;;;;;;23.37;18.20;;;6.90;86.50;;;;;;5093450;28;20455;-57
2022/03/23 07:29:08;;;;;;;21.67;18.30;;;6.90;86.20;;;;;;5093199;28;20451;-58
2022/03/23 07:31:35;;;;;;;21.07;18.10;;;7.00;86.40;;;;;;5093708;28;20458;-58
2022/03/23 07:34:04;;;;;;;25.00;18.87;;;7.10;85.80;;;;;;5093033;28;20448;-57
2022/03/23 07:36:31;;;;;;;23.27;17.10;;;7.20;85.70;;;;;;5093090;28;20447;-58
2022/03/23 07:38:59;;;;;;;26.13;18.50;;;7.30;84.70;;;;;;5093275;28;20941;-58
2022/03/23 07:41:26;;;;;;;26.50;18.67;;;7.40;84.00;;;;;;5093024;28;20455;-57
2022/03/23 07:43:53;;;;;;;23.40;17.30;;;7.60;83.90;;;;;;5093199;28;20683;-58
2022/03/23 07:46:21;;;;;;;23.63;19.00;;;7.70;83.90;;;;;;5093132;28;20535;-58
2022/03/23 07:48:49;;;;;;;19.67;17.13;;;7.90;84.00;;;;;;5093000;28;20464;-58
2022/03/23 07:51:16;;;;;;;27.40;19.17;;;8.10;85.20;;;;;;5092850;28;20479;-58
2022/03/23 07:53:43;;;;;;;24.20;17.13;;;8.20;82.90;;;;;;5092884;28;20471;-58
2022/03/23 07:56:10;;;;;;;25.40;19.70;;;8.30;83.60;;;;;;5093120;28;20439;-58
2022/03/23 07:58:37;;;;;;;21.60;18.40;;;8.40;84.90;;;;;;5092815;28;20558;-58
2022/03/23 08:01:05;;;;;;;22.73;18.17;;;8.50;83.30;;;;;;5092700;28;20980;-58
2022/03/23 08:03:33;;;;;;;31.50;19.07;;;8.60;81.10;;;;;;5092970;28;20480;-57
2022/03/23 08:06:00;;;;;;;25.90;18.70;;;8.70;80.90;;;;;;5092584;28;20810;-58
2022/03/23 08:08:27;;;;;;;21.53;18.53;;;8.80;81.50;;;;;;5093110;28;20468;-58
2022/03/23 08:10:54;;;;;;;25.33;18.47;;;8.90;82.10;;;;;;5092815;28;20447;-58
2022/03/23 08:13:22;;;;;;;23.73;18.17;;;9.00;80.70;;;;;;5092718;28;20786;-58
2022/03/23 08:15:49;;;;;;;24.23;18.47;;;9.10;80.50;;;;;;5092391;28;20447;-58
2022/03/23 08:18:17;;;;;;;31.50;20.10;;;9.10;79.90;;;;;;5092911;28;20465;-58
2022/03/23 08:20:46;;;;;;;27.87;18.30;;;9.30;78.90;;;;;;5092769;28;20455;-58
2022/03/23 08:23:15;;;;;;;24.70;18.63;;;9.40;78.70;;;;;;5092630;28;20439;-58
2022/03/23 08:25:43;;;;;;;23.97;17.90;;;9.50;79.70;;;;;;5092418;28;20447;-58
2022/03/23 08:28:12;;;;;;;30.00;19.40;;;9.60;76.80;;;;;;5092441;28;21011;-57
2022/03/23 08:30:40;;;;;;;29.10;19.30;;;9.70;75.70;;;;;;5092899;28;20450;-57
2022/03/23 08:33:08;;;;;;;23.67;18.40;;;9.80;75.50;;;;;;5092797;28;20452;-58
2022/03/23 08:35:36;;;;;;;25.60;18.00;;;9.90;75.60;;;;;;5092752;28;20550;-57
2022/03/23 08:38:05;;;;;;;23.53;18.77;;;9.90;76.20;;;;;;5092480;28;20521;-57
2022/03/23 08:40:32;;;;;;;22.17;18.80;;;10.00;73.90;;;;;;5092507;28;20534;-57
2022/03/23 08:42:59;;;;;;;27.60;21.10;;;10.10;75.10;;;;;;5092514;28;20548;-58
2022/03/23 08:45:28;;;;;;;20.33;17.90;;;10.20;71.60;;;;;;5092190;28;20529;-58
2022/03/23 08:47:55;;;;;;;24.23;18.93;;;10.40;72.50;;;;;;5092592;28;20549;-58
2022/03/23 08:50:22;;;;;;;29.50;18.83;;;9.00;80.50;;;;;;5096262;28;20798;-58
2022/03/23 08:52:50;;;;;;;29.37;20.43;;;10.70;73.60;;;;;;5095812;28;20486;-58
2022/03/23 08:55:23;;;;;;;22.07;17.60;;;10.80;74.70;;;;;;5095855;28;20446;-57
2022/03/23 08:57:50;;;;;;;26.77;19.17;;;10.90;74.50;;;;;;5096327;28;20464;-58
2022/03/23 09:00:18;;;;;;;27.57;20.00;;;11.00;74.20;;;;;;5095806;28;20534;-58
2022/03/23 09:02:45;;;;;;;32.30;20.70;;;11.20;72.70;;;;;;5096124;28;20447;-57
2022/03/23 09:05:14;;;;;;;25.97;21.23;;;11.30;72.70;;;;;;5095762;28;20482;-58
2022/03/23 09:07:42;;;;;;;23.17;19.93;;;11.50;73.30;;;;;;5095899;28;20861;-57
2022/03/23 09:10:11;;;;;;;29.93;20.20;;;11.60;72.40;;;;;;5095621;28;20548;-58
2022/03/23 09:12:40;;;;;;;25.50;21.43;;;11.60;73.20;;;;;;5095814;28;20477;-58
2022/03/23 09:15:09;;;;;;;26.87;21.33;;;11.60;71.70;;;;;;5095620;28;20510;-57
2022/03/23 09:17:37;;;;;;;21.80;18.80;;;11.80;71.90;;;;;;5095818;28;20459;-57
2022/03/23 09:20:05;;;;;;;28.63;19.53;;;11.90;71.60;;;;;;5095893;28;20451;-57
2022/03/23 09:22:34;;;;;;;22.23;19.03;;;12.00;70.70;;;;;;5095977;28;20540;-57
2022/03/23 09:25:03;;;;;;;23.00;19.60;;;12.10;70.20;;;;;;5095599;28;20478;-57
2022/03/23 09:27:30;;;;;;;26.40;21.10;;;12.60;69.40;;;;;;5095605;28;20517;-57
2022/03/23 09:29:58;;;;;;;28.40;20.77;;;13.60;66.50;;;;;;5095764;28;20526;-58
2022/03/23 09:32:26;;;;;;;23.33;19.67;;;14.90;64.10;;;;;;5095489;28;20458;-57
2022/03/23 09:34:53;;;;;;;24.50;20.30;;;15.80;60.00;;;;;;5095090;28;20439;-58
2022/03/23 09:40:06;;;;;;;24.80;18.37;;;;;;;;;;5095391;28;20923;-58
2022/03/23 09:42:33;;;;;;;24.03;18.07;;;18.70;54.50;;;;;;5095139;28;20523;-58
2022/03/23 09:45:02;;;;;;;23.83;17.97;;;19.00;52.60;;;;;;5094995;28;20471;-58
2022/03/23 09:47:31;;;;;;;21.00;15.80;;;19.70;51.00;;;;;;5095183;28;20830;-58
2022/03/23 09:49:58;;;;;;;17.93;14.63;;;20.10;46.50;;;;;;5095290;28;20556;-58
2022/03/23 09:52:25;;;;;;;22.53;15.23;;;20.20;47.10;;;;;;5094734;28;20533;-58
2022/03/23 09:54:52;;;;;;;18.17;16.10;;;20.50;46.50;;;;;;5094790;28;20436;-58
2022/03/23 09:57:19;;;;;;;17.57;15.40;;;20.20;45.70;;;;;;5094928;28;20470;-58
2022/03/23 09:59:46;;;;;;;17.27;14.87;;;20.20;46.10;;;;;;5095007;28;20454;-58
2022/03/23 10:02:51;;;;;;;17.13;13.93;;;20.20;45.30;;;;;;5094960;28;20482;-58
2022/03/23 10:05:52;;;;;;;17.17;15.33;;;21.00;43.20;;;;;;5094888;28;20504;-58
2022/03/23 10:08:55;;;;;;;16.97;15.17;;;21.50;45.00;;;;;;5094679;28;20549;-58
2022/03/23 10:11:59;;;;;;;16.87;14.60;;;21.20;42.90;;;;;;5094578;28;20431;-58
2022/03/23 10:15:11;;;;;;;16.70;15.00;;;21.60;43.40;;;;;;5094865;28;20546;-58
2022/03/23 10:18:13;;;;;;;12.70;11.53;;;22.00;40.80;;;;;;5066268;28;20976;-58
2022/03/23 10:20:42;;;;;;;15.70;14.17;;;21.50;38.30;;;;;;5094655;28;20450;-58
2022/03/23 10:23:09;;;;;;;18.10;13.93;;;21.40;39.00;;;;;;5094152;28;20534;-58
2022/03/23 10:25:38;;;;;;;14.17;12.73;;;21.50;39.10;;;;;;5094251;28;20483;-58
2022/03/23 10:28:13;;;;;;;14.53;13.13;;;21.60;39.30;;;;;;5094459;28;20476;-58
2022/03/23 10:30:40;;;;;;;17.03;14.80;;;21.20;39.60;;;;;;5094458;28;20427;-58
2022/03/23 10:33:18;;;;;;;16.27;14.73;;;21.80;39.10;;;;;;5094484;28;20534;-58
2022/03/23 10:35:46;;;;;;;12.43;11.23;;;22.50;38.70;;;;;;5094232;28;20550;-58
2022/03/23 10:38:15;;;;;;;15.00;13.70;;;22.20;37.20;;;;;;5093821;28;20499;-59
2022/03/23 10:40:43;;;;;;;13.90;12.50;;;23.10;38.00;;;;;;5094385;28;20440;-59
2022/03/23 10:43:11;;;;;;;13.10;11.93;;;23.90;41.30;;;;;;5094263;28;20532;-59
2022/03/23 10:45:39;;;;;;;13.53;12.23;;;24.20;37.40;;;;;;5094152;28;20566;-58
2022/03/23 10:48:11;;;;;;;14.17;12.70;;;24.30;37.40;;;;;;5094155;28;20546;-58
2022/03/23 10:50:39;;;;;;;15.13;13.47;;;25.00;36.70;;;;;;5094195;28;20977;-58
2022/03/23 10:53:08;;;;;;;14.40;12.43;;;24.40;36.30;;;;;;5093664;28;20486;-58
2022/03/23 10:55:39;;;;;;;12.30;11.20;;;23.90;35.10;;;;;;5094099;28;20439;-58
2022/03/23 10:58:28;;;;;;;12.83;11.40;;;23.30;34.70;;;;;;5093621;28;20605;-58
2022/03/23 11:01:02;;;;;;;14.73;12.93;;;23.00;34.00;;;;;;5093935;28;20424;-58
2022/03/23 11:03:43;;;;;;;14.57;13.03;;;23.40;36.10;;;;;;5093592;28;20431;-58
2022/03/23 11:06:12;;;;;;;14.53;13.17;;;24.10;37.20;;;;;;5093885;28;20427;-58
2022/03/23 11:08:43;;;;;;;16.50;11.57;;;24.90;36.00;;;;;;5093526;28;20474;-59
2022/03/23 11:16:46;;;;;;;13.93;12.73;;;25.20;33.80;;;;;;5093371;28;20557;-59
2022/03/23 11:19:19;;;;;;;12.20;11.00;;;25.10;34.20;;;;;;5093172;28;20435;-59
2022/03/23 11:22:01;;;;;;;12.57;11.30;;;24.70;32.80;;;;;;5093122;28;20440;-58
2022/03/23 11:24:33;;;;;;;12.00;10.90;;;23.70;33.00;;;;;;5093563;28;20475;-58
2022/03/23 11:27:01;;;;;;;14.03;11.57;;;23.90;33.10;;;;;;5093130;28;20460;-58
2022/03/23 11:29:32;;;;;;;16.90;12.30;;;24.00;33.70;;;;;;5093293;28;20448;-58
2022/03/23 11:32:04;;;;;;;13.33;12.03;;;24.20;33.60;;;;;;5093493;28;20438;-58
2022/03/23 11:34:47;;;;;;;11.73;10.70;;;24.70;32.80;;;;;;5093536;28;20429;-58
2022/03/23 11:37:15;;;;;;;13.13;11.83;;;24.70;33.60;;;;;;5092728;28;20818;-59
2022/03/23 11:39:45;;;;;;;13.83;12.57;;;24.80;32.40;;;;;;5093213;28;20458;-59
2022/03/23 11:42:17;;;;;;;12.63;11.43;;;24.50;32.30;;;;;;5093192;28;20542;-59
2022/03/23 11:44:46;;;;;;;13.17;11.97;;;24.30;31.80;;;;;;5093282;28;20499;-58
2022/03/23 11:47:28;;;;;;;10.07;9.27;;;25.00;32.90;;;;;;5092809;28;20503;-58
2022/03/23 11:50:06;;;;;;;10.10;9.20;;;24.50;31.20;;;;;;5092872;28;20895;-58
2022/03/23 11:52:45;;;;;;;10.60;9.60;;;23.70;31.10;;;;;;5092608;28;20479;-58
2022/03/23 11:58:16;;;;;;;12.17;10.97;;;23.40;32.20;;;;;;5092781;28;20466;-59
2022/03/23 12:00:46;;;;;;;10.40;9.40;;;23.50;31.90;;;;;;5092907;28;20914;-58
2022/03/23 12:03:16;;;;;;;11.83;10.80;;;24.00;32.10;;;;;;5092800;28;20450;-58
2022/03/23 12:05:53;;;;;;;12.33;10.00;;;24.20;32.30;;;;;;5093625;28;20945;-58
2022/03/23 12:08:46;;;;;;;10.93;9.37;;;23.70;32.20;;;;;;5092816;28;20459;-58
2022/03/23 12:11:47;;;;;;;11.03;9.87;;;24.10;32.40;;;;;;5093193;28;20427;-59
2022/03/23 12:14:24;;;;;;;11.23;10.13;;;22.80;31.40;;;;;;5090643;28;20550;-58
2022/03/23 12:17:28;;;;;;;13.73;10.53;;;22.40;31.90;;;;;;5092933;28;20987;-58
2022/03/23 12:19:58;;;;;;;11.70;10.50;;;23.10;32.10;;;;;;5092832;28;20462;-59
2022/03/23 12:22:52;;;;;;;11.87;10.77;;;22.70;31.00;;;;;;5092940;28;20443;-57
2022/03/23 12:25:24;;;;;;;12.60;11.40;;;22.70;31.00;;;;;;5096499;28;20536;-57
2022/03/23 12:28:17;;;;;;;9.13;8.33;;;22.70;31.10;;;;;;5097004;28;20467;-59
2022/03/23 12:31:07;;;;;;;10.93;9.80;;;23.40;30.10;;;;;;5096868;28;20470;-58
2022/03/23 12:34:03;;;;;;;9.80;8.90;;;22.90;29.60;;;;;;5096760;28;20516;-58
2022/03/23 12:36:56;;;;;;;11.40;10.20;;;23.30;29.70;;;;;;5096305;28;20434;-58
2022/03/23 12:39:31;;;;;;;11.77;10.57;;;23.60;31.10;;;;;;5096080;28;20435;-58
2022/03/23 12:41:59;;;;;;;12.43;11.23;;;23.80;32.10;;;;;;5096438;28;20450;-59
2022/03/23 12:44:32;;;;;;;12.03;10.83;;;23.60;31.90;;;;;;5096466;28;20513;-59
2022/03/23 12:47:16;;;;;;;12.73;10.17;;;23.90;32.10;;;;;;5096259;28;20972;-61
2022/03/23 12:58:10;;;;;;;13.40;12.13;;;24.00;32.70;;;;;;5096159;28;20484;-58
2022/03/23 13:00:40;;;;;;;12.70;11.57;;;24.00;32.20;;;;;;5096021;28;20533;-58
2022/03/23 13:03:52;;;;;;;11.67;10.57;;;23.20;31.90;;;;;;5095764;28;20438;-59
2022/03/23 13:06:21;;;;;;;11.50;10.50;;;22.90;30.30;;;;;;5095832;28;20566;-58
2022/03/23 13:08:48;;;;;;;13.10;10.93;;;23.10;30.80;;;;;;5095189;28;20801;-57
2022/03/23 13:11:21;;;;;;;14.00;12.57;;;23.30;30.50;;;;;;5095666;28;20438;-58
2022/03/23 13:13:53;;;;;;;13.13;10.57;;;22.90;31.30;;;;;;5095208;28;20467;-58
2022/03/23 13:16:25;;;;;;;13.40;10.50;;;23.10;32.10;;;;;;5096170;28;20459;-58
2022/03/23 13:18:57;;;;;;;12.60;11.30;;;23.60;31.60;;;;;;5095626;28;20527;-58